SBPJSBGO

Guest
Details From SBPJ - Tocantins
To SBGO - Santo Genoveva
Flight Number -
Tags generated
Created
Modified
Stats Distance 409 nm / 757 km
Max Altitude 23,100 ft / 7,041 m
Waypoints 6
Social Downloads 1
Likes 0
Share VATSIM

Download

Looking for another format? Having issues loading an existing format? Contact us
Advertisement - Login to hide

Notes

Basic altitude profile: - Ascent Rate: 2500ft/min - Ascent Speed: 250kts - Cruise Altitude: 35000ft - Cruise Speed: 420kts - Descent Rate: 1500ft/min - Descent Speed: 250kts Options: - Use NATs: yes - Use PACOTS: yes - Use low airways: yes - Use high airways: yes

Route

SBPJ PMS G449 PORMI EDNAR SBGO

ID Type Via Altitude Latitude Longitude Leg Dist Tot Dist Heading (true) Name
O SBPJ APT - 0 ft / 0 m -10.29152˚ -48.35697˚ - 0 nm - Tocantins
PMS VOR - 0 ft / 0 m -10.28792˚ -48.35842˚ 0 nm 0 nm 338° / 338° PALMAS VOR-DME
LIBEC FIX G449 (AWY-LO) 21,600 ft / 6,584 m -11.29083˚ -48.29900˚ 60 nm 60 nm 177° / 177° -
PORMI FIX G449 (AWY-LO) 23,100 ft / 7,041 m -15.20533˚ -48.06100˚ 235 nm 296 nm 177° / 177° -
EDNAR FIX - 16,800 ft / 5,121 m -15.47683˚ -48.57850˚ 34 nm 330 nm 241° / 242° -
O SBGO APT - 0 ft / 0 m -16.63203˚ -49.22069˚ 78 nm 408 nm 208° / 208° Santo Genoveva

Altitude Profile

Advertisement - Login to hide

Weather


0- 5 10 15 20 25 30 35+ Temperature / ° C

Clouds and Precipitation
Forecast for 2017-12-17 18:00 UTC. Updated 42 minutes ago

Ground ~20,000 ft ~40,000 ft Winds

SBPJ

Details ICAO SBPJ (PMW)
Name Tocantins
Region Brazil
Timezone America/Araguaina (UTC-3.0)
Stats Elevation 774 ft / 236 m (AMSL)
Location -10.291524° -48.356972°
Runways 1
Magnetic Variation 21.253° W

METAR

Not found

TAF

TAF SBPJ 171000Z 1712/1724 12005KT 9999 SCT018 TN25/1712Z TX30/1717Z FM171600 20007KT SCT025 FEW030TCU PROB30 1720/1723 8000 TSRA SCT025 FEW030CB RMK PDS

Decode

Departure Runways

ID Width Length Bearing (true) Bearing (mag) Surface Threshold Offset Overrun Length
14 148 ft / 45 m 8,194 ft / 2,497 m 124.06° 145.31° Asphalt 0 ft / 0 m 0 ft / 0 m
32 148 ft / 45 m 8,194 ft / 2,497 m 304.06° 325.31° Asphalt 0 ft / 0 m 0 ft / 0 m

SBGO

Details ICAO SBGO (GYN)
Name Santo Genoveva
Region Brazil
Timezone America/Sao_Paulo (UTC-2.0)
Stats Elevation 2,450 ft / 747 m (AMSL)
Location -16.632032° -49.220686°
Runways 1
Magnetic Variation 20.989° W

METAR

SBGO 171600Z 29010KT 9999 VCSH BKN033 FEW040TCU 27/17 Q1017

Decode

TAF

TAF SBGO 171000Z 1712/1812 34008KT 9999 SCT015 TX27/1718Z TN20/1809Z PROB30 1712/1718 4000 RA BKN010 BECMG 1714/1716 SCT025 FEW040TCU TEMPO 1718/1722 8000 TSRA SCT018 FEW35CB FM172200 28004KT BECMG 1800/1802 SCT020 PROB30 1802/1811 RA SCT030 RMK PDS

Decode

Destination Runways

ID Width Length Bearing (true) Bearing (mag) Surface Threshold Offset Overrun Length
14 148 ft / 45 m 8,208 ft / 2,502 m 120.42° 141.41° Asphalt 0 ft / 0 m 0 ft / 0 m
32 148 ft / 45 m 8,208 ft / 2,502 m 300.41° 321.40° Asphalt 980 ft / 299 m 0 ft / 0 m

Popular Alternatives